createdAt,value
2023-04-08T00:01:20.907Z,39.80
2023-04-08T00:06:22.637Z,41.54
2023-04-08T00:11:24.402Z,41.21
2023-04-08T00:16:26.404Z,41.64
2023-04-08T00:21:28.170Z,40.77
2023-04-08T00:26:29.929Z,40.23
2023-04-08T00:31:31.909Z,40.99
2023-04-08T00:36:34.699Z,41.12
2023-04-08T00:41:36.479Z,41.32
2023-04-08T00:46:40.696Z,41.84
2023-04-08T00:51:42.542Z,42.55
2023-04-08T00:56:45.361Z,40.87
2023-04-08T01:02:02.503Z,42.08
2023-04-08T01:07:16.005Z,42.42
2023-04-08T01:12:41.984Z,42.22
2023-04-08T01:17:46.520Z,41.57
2023-04-08T01:23:00.571Z,41.26
2023-04-08T01:28:15.754Z,41.70
2023-04-08T01:33:19.843Z,41.68
2023-04-08T01:38:24.499Z,41.18
2023-04-08T01:43:27.809Z,42.12
2023-04-08T01:48:30.961Z,41.54
2023-04-08T01:53:33.826Z,40.27
2023-04-08T01:58:40.999Z,41.23
2023-04-08T02:03:45.602Z,42.20
2023-04-08T02:08:50.126Z,42.56
2023-04-08T02:13:53.342Z,41.40
2023-04-08T02:19:09.951Z,40.95
2023-04-08T02:24:14.273Z,39.59
2023-04-08T02:29:17.211Z,42.03
2023-04-08T02:34:22.237Z,41.55
2023-04-08T02:39:31.991Z,40.87
2023-04-08T02:44:33.866Z,41.23
2023-04-08T02:49:38.109Z,40.70
2023-04-08T02:54:39.913Z,40.78
2023-04-08T02:59:41.721Z,40.74
2023-04-08T03:04:43.555Z,40.77
2023-04-08T03:09:45.433Z,40.67
2023-04-08T03:14:47.268Z,40.67
2023-04-08T03:19:49.313Z,41.06
2023-04-08T03:24:51.356Z,40.22
2023-04-08T03:29:53.232Z,42.74
2023-04-08T03:34:55.377Z,43.84
2023-04-08T03:39:57.290Z,42.32
2023-04-08T03:44:59.160Z,42.50
2023-04-08T03:50:00.947Z,42.56
2023-04-08T03:55:02.820Z,41.54
2023-04-08T04:00:05.148Z,42.98
2023-04-08T04:05:14.021Z,41.05
2023-04-08T04:10:16.053Z,42.43
2023-04-08T04:15:18.013Z,41.30
2023-04-08T04:20:20.256Z,41.74
2023-04-08T04:25:22.220Z,41.17
2023-04-08T04:30:24.309Z,41.25
2023-04-08T04:35:26.127Z,42.09
2023-04-08T04:40:28.005Z,41.33
2023-04-08T04:45:29.750Z,41.14
2023-04-08T04:50:31.521Z,40.58
2023-04-08T04:55:33.246Z,40.35
2023-04-08T05:00:35.036Z,39.61
2023-04-08T05:05:36.872Z,39.81
2023-04-08T05:10:41.324Z,39.29
2023-04-08T05:15:43.978Z,39.63
2023-04-08T05:20:46.697Z,39.72
2023-04-08T05:25:48.555Z,39.38
2023-04-08T05:30:51.534Z,42.58
2023-04-08T05:35:53.390Z,41.12
2023-04-08T05:40:55.260Z,40.68
2023-04-08T05:45:57.053Z,40.18
2023-04-08T05:50:58.865Z,40.45
2023-04-08T05:56:00.765Z,40.46
2023-04-08T06:01:02.556Z,39.93
2023-04-08T06:06:04.501Z,40.06
2023-04-08T06:11:06.453Z,39.73
2023-04-08T06:16:12.294Z,40.23
2023-04-08T06:21:14.435Z,39.98
2023-04-08T06:26:16.412Z,40.36
2023-04-08T06:31:18.193Z,40.41
2023-04-08T06:36:20.004Z,40.91
2023-04-08T06:41:21.873Z,40.41
2023-04-08T06:46:25.727Z,40.46
2023-04-08T06:51:28.280Z,40.70
2023-04-08T06:56:30.090Z,40.49
2023-04-08T07:01:32.250Z,40.69
2023-04-08T07:06:34.139Z,40.69
2023-04-08T07:11:36.181Z,41.90
2023-04-08T07:16:38.094Z,41.41
2023-04-08T07:21:40.025Z,41.12
2023-04-08T07:26:42.200Z,41.04
2023-04-08T07:31:44.576Z,40.85
2023-04-08T07:36:46.388Z,41.19
2023-04-08T07:41:48.185Z,41.18
2023-04-08T07:46:51.827Z,41.57
2023-04-08T07:51:53.722Z,40.15
2023-04-08T07:56:55.722Z,40.83
2023-04-08T08:01:57.726Z,41.14
2023-04-08T08:06:59.745Z,40.91
2023-04-08T08:12:01.758Z,41.38
2023-04-08T08:17:04.197Z,52.28
2023-04-08T08:22:06.250Z,58.69
2023-04-08T08:27:10.777Z,56.61
2023-04-08T08:32:12.656Z,58.96
2023-04-08T08:37:14.530Z,55.59
2023-04-08T08:42:23.602Z,64.07
2023-04-08T08:47:25.864Z,63.47
2023-04-08T08:52:27.824Z,63.43
2023-04-08T08:57:29.748Z,68.91
2023-04-08T09:02:32.353Z,69.91
2023-04-08T09:07:40.679Z,63.47
2023-04-08T09:12:56.269Z,63.46
2023-04-08T09:17:58.649Z,64.71
2023-04-08T09:23:02.112Z,65.57
2023-04-08T09:28:04.006Z,63.48
2023-04-08T09:33:07.547Z,54.95
2023-04-08T09:38:09.820Z,49.16
2023-04-08T09:43:15.550Z,59.35
2023-04-08T09:48:32.953Z,52.21
2023-04-08T09:53:37.938Z,46.96
2023-04-08T09:58:52.276Z,46.09
2023-04-08T10:03:57.511Z,57.71
2023-04-08T10:09:02.165Z,55.69
2023-04-08T10:14:04.172Z,55.79
2023-04-08T10:19:41.430Z,61.44
2023-04-08T10:25:18.256Z,52.87
2023-04-08T10:30:28.784Z,48.75
2023-04-08T10:35:36.689Z,53.98
2023-04-08T10:40:42.657Z,53.93
2023-04-08T10:45:48.595Z,54.57
2023-04-08T10:50:56.456Z,53.50
2023-04-08T10:56:19.094Z,45.50
2023-04-08T11:01:21.394Z,50.21
2023-04-08T11:06:24.876Z,51.36
2023-04-08T11:11:29.523Z,55.50
2023-04-08T11:16:32.634Z,50.28
2023-04-08T11:21:38.652Z,51.66
2023-04-08T11:26:42.161Z,51.47
2023-04-08T11:31:44.519Z,48.63
2023-04-08T11:36:46.486Z,42.32
2023-04-08T11:41:48.317Z,50.50
2023-04-08T11:46:55.552Z,47.18
2023-04-08T11:51:59.767Z,44.19
2023-04-08T11:57:03.042Z,50.47
2023-04-08T12:02:04.965Z,45.24
2023-04-08T12:07:06.785Z,43.65
2023-04-08T12:12:08.646Z,48.88
2023-04-08T12:17:10.647Z,48.12
2023-04-08T12:22:12.486Z,47.70
2023-04-08T12:27:14.533Z,48.33
2023-04-08T12:32:16.364Z,48.73
2023-04-08T12:37:18.202Z,48.52
2023-04-08T12:42:20.053Z,47.48
2023-04-08T12:47:23.718Z,44.80
2023-04-08T12:52:27.394Z,45.71
2023-04-08T12:57:29.146Z,47.69
2023-04-08T13:02:31.107Z,47.27
2023-04-08T13:07:32.930Z,46.11
2023-04-08T13:12:35.006Z,43.87
2023-04-08T13:17:36.875Z,47.28
2023-04-08T13:22:38.746Z,46.36
2023-04-08T13:27:40.756Z,47.74
2023-04-08T13:32:42.668Z,45.00
2023-04-08T13:37:44.782Z,39.13
2023-04-08T13:42:47.973Z,41.09
2023-04-08T13:47:49.870Z,39.21
2023-04-08T13:52:51.707Z,38.80
2023-04-08T13:57:53.481Z,42.86
2023-04-08T14:02:55.324Z,42.23
2023-04-08T14:07:57.127Z,39.00
2023-04-08T14:12:58.950Z,40.10
2023-04-08T14:18:00.983Z,40.01
2023-04-08T14:23:02.818Z,39.85
2023-04-08T14:28:04.880Z,34.84
2023-04-08T14:33:06.829Z,39.49
2023-04-08T14:38:08.810Z,39.22
2023-04-08T14:43:10.661Z,41.08
2023-04-08T14:48:12.469Z,43.70
2023-04-08T14:53:14.298Z,43.53
2023-04-08T14:58:16.641Z,41.63
2023-04-08T15:03:18.974Z,40.77
2023-04-08T15:08:30.795Z,41.59
2023-04-08T15:13:32.665Z,39.69
2023-04-08T15:18:34.474Z,36.78
2023-04-08T15:23:36.624Z,40.41
2023-04-08T15:28:40.422Z,37.39
2023-04-08T15:33:43.126Z,38.74
2023-04-08T15:38:46.589Z,38.62
2023-04-08T15:43:48.981Z,35.55
2023-04-08T15:48:51.449Z,36.52
2023-04-08T15:53:53.496Z,33.69
2023-04-08T15:58:58.899Z,35.16
2023-04-08T16:04:01.116Z,33.14
2023-04-08T16:09:03.193Z,33.94
2023-04-08T16:14:05.225Z,31.32
2023-04-08T16:19:07.564Z,32.27
2023-04-08T16:24:09.376Z,34.82
2023-04-08T16:29:11.277Z,34.56
2023-04-08T16:34:13.104Z,32.61
2023-04-08T16:39:16.429Z,35.97
2023-04-08T16:44:18.404Z,33.18
2023-04-08T16:49:20.339Z,33.64
2023-04-08T16:54:22.190Z,32.77
2023-04-08T16:59:23.936Z,33.56
2023-04-08T17:04:25.875Z,33.42
2023-04-08T17:09:27.759Z,33.57
2023-04-08T17:14:29.646Z,31.94
2023-04-08T17:19:31.477Z,32.02
2023-04-08T17:24:33.309Z,30.66
2023-04-08T17:29:35.793Z,31.70
2023-04-08T17:34:38.114Z,32.58
2023-04-08T17:39:41.186Z,33.74
2023-04-08T17:44:44.748Z,32.88
2023-04-08T17:49:46.962Z,32.46
2023-04-08T17:54:48.868Z,29.36
2023-04-08T17:59:51.536Z,27.75
2023-04-08T18:04:53.421Z,28.51
2023-04-08T18:09:55.530Z,28.08
2023-04-08T18:15:00.258Z,27.33
2023-04-08T18:20:02.125Z,27.20
2023-04-08T18:25:04.668Z,28.19
2023-04-08T18:30:07.227Z,29.48
2023-04-08T18:35:10.062Z,29.48
2023-04-08T18:40:12.896Z,29.97
2023-04-08T18:45:14.826Z,29.11
2023-04-08T18:50:16.777Z,29.91
2023-04-08T18:55:18.997Z,29.43
2023-04-08T19:00:21.129Z,29.83
2023-04-08T19:05:24.158Z,30.92
2023-04-08T19:10:26.103Z,30.34
2023-04-08T19:15:31.401Z,32.00
2023-04-08T19:20:33.727Z,35.15
2023-04-08T19:25:36.466Z,33.82
2023-04-08T19:30:39.106Z,33.87
2023-04-08T19:35:41.078Z,32.04
2023-04-08T19:40:42.884Z,32.94
2023-04-08T19:45:44.820Z,32.33
2023-04-08T19:50:47.396Z,31.66
2023-04-08T19:55:49.246Z,31.46
2023-04-08T20:00:51.110Z,33.07
2023-04-08T20:05:52.900Z,33.25
2023-04-08T20:10:54.698Z,32.91
2023-04-08T20:15:56.825Z,35.71
2023-04-08T20:20:59.597Z,34.65
2023-04-08T20:26:01.496Z,33.36
2023-04-08T20:31:04.310Z,35.65
2023-04-08T20:36:06.221Z,36.46
2023-04-08T20:41:08.159Z,36.04
2023-04-08T20:46:10.579Z,35.07
2023-04-08T20:51:12.517Z,35.45
2023-04-08T20:56:14.324Z,34.82
2023-04-08T21:01:16.520Z,35.17
2023-04-08T21:06:19.302Z,35.38
2023-04-08T21:11:21.332Z,34.54
2023-04-08T21:16:23.240Z,35.47
2023-04-08T21:21:25.705Z,36.26
2023-04-08T21:26:27.735Z,35.28
2023-04-08T21:31:30.394Z,37.76
2023-04-08T21:36:32.272Z,38.23
2023-04-08T21:41:34.095Z,38.78
2023-04-08T21:46:35.998Z,37.21
2023-04-08T21:51:39.223Z,37.11
2023-04-08T21:56:41.081Z,37.22
2023-04-08T22:01:43.226Z,36.76
2023-04-08T22:06:45.872Z,38.37
2023-04-08T22:11:47.743Z,37.80
2023-04-08T22:16:49.739Z,37.20
2023-04-08T22:21:51.790Z,37.88
2023-04-08T22:26:54.328Z,37.95
2023-04-08T22:31:56.411Z,38.00
2023-04-08T22:36:58.195Z,37.06
2023-04-08T22:42:00.003Z,37.40
2023-04-08T22:47:01.935Z,37.71
2023-04-08T22:52:03.871Z,36.48
2023-04-08T22:57:05.945Z,38.33
2023-04-08T23:02:07.902Z,40.39
2023-04-08T23:07:09.834Z,39.05
2023-04-08T23:12:11.691Z,38.89
2023-04-08T23:17:13.546Z,38.25
2023-04-08T23:22:15.479Z,37.38
2023-04-08T23:27:17.380Z,38.54
2023-04-08T23:32:19.358Z,38.66
2023-04-08T23:37:21.489Z,38.33
2023-04-08T23:42:27.339Z,38.02
2023-04-08T23:47:31.188Z,38.50
2023-04-08T23:52:33.148Z,39.56
2023-04-08T23:57:35.032Z,41.28
